createdAt,value
2022-10-06T00:00:00.073Z,68.37
2022-10-06T00:02:37.155Z,69.15
2022-10-06T00:10:50.507Z,68.80
2022-10-06T01:00:11.256Z,69.91
2022-10-06T01:02:54.798Z,69.75
2022-10-06T01:05:43.575Z,69.62
2022-10-06T01:08:15.258Z,69.80
2022-10-06T01:10:44.633Z,69.20
2022-10-06T01:13:16.043Z,69.45
2022-10-06T01:16:20.691Z,69.73
2022-10-06T01:19:16.340Z,69.60
2022-10-06T01:21:49.430Z,69.47
2022-10-06T01:27:25.820Z,69.46
2022-10-06T01:29:55.190Z,69.24
2022-10-06T01:32:23.640Z,69.88
2022-10-06T01:34:53.105Z,70.04
2022-10-06T01:37:28.104Z,69.60
2022-10-06T01:45:39.781Z,69.67
2022-10-06T01:56:32.302Z,70.00
2022-10-06T01:59:01.774Z,69.80
2022-10-06T02:01:30.064Z,69.26
2022-10-06T02:03:58.359Z,69.42
2022-10-06T02:06:32.225Z,69.64
2022-10-06T02:09:03.427Z,69.68
2022-10-06T02:11:32.106Z,69.89
2022-10-06T02:14:04.955Z,69.46
2022-10-06T02:16:41.956Z,69.60
2022-10-06T02:19:13.967Z,70.04
2022-10-06T02:21:52.458Z,69.99
2022-10-06T02:27:09.332Z,69.58
2022-10-06T02:29:55.131Z,70.14
2022-10-06T02:32:54.055Z,69.83
2022-10-06T02:35:34.998Z,69.82
2022-10-06T02:38:09.581Z,69.81
2022-10-06T02:43:32.942Z,70.12
2022-10-06T02:46:11.069Z,70.04
2022-10-06T02:48:42.850Z,69.49
2022-10-06T02:51:16.991Z,69.92
2022-10-06T02:59:52.367Z,69.89
2022-10-06T03:05:20.665Z,70.14
2022-10-06T03:07:50.486Z,70.19
2022-10-06T03:15:49.894Z,69.75
2022-10-06T03:18:25.028Z,70.10
2022-10-06T03:21:06.430Z,70.55
2022-10-06T03:23:38.822Z,70.15
2022-10-06T03:26:11.194Z,70.22
2022-10-06T03:28:44.561Z,70.77
2022-10-06T03:31:18.977Z,70.44
2022-10-06T03:33:51.310Z,70.79
2022-10-06T03:39:13.753Z,70.31
2022-10-06T03:41:44.409Z,70.13
2022-10-06T03:44:13.217Z,70.62
2022-10-06T03:46:42.837Z,71.00
2022-10-06T03:49:10.486Z,70.23
2022-10-06T03:51:39.163Z,70.71
2022-10-06T03:54:12.758Z,70.56
2022-10-06T03:56:43.628Z,70.43
2022-10-06T03:59:14.224Z,70.66
2022-10-06T04:01:45.513Z,70.84
2022-10-06T04:04:15.307Z,70.64
2022-10-06T04:06:44.814Z,70.58
2022-10-06T04:09:16.128Z,70.63
2022-10-06T04:11:44.470Z,70.74
2022-10-06T04:14:13.962Z,70.86
2022-10-06T04:16:45.366Z,70.73
2022-10-06T04:19:14.065Z,71.04
2022-10-06T04:21:45.986Z,70.86
2022-10-06T04:24:18.678Z,70.74
2022-10-06T04:26:49.180Z,70.89
2022-10-06T04:29:17.701Z,71.10
2022-10-06T04:31:47.249Z,70.94
2022-10-06T04:34:29.132Z,71.09
2022-10-06T04:36:56.302Z,71.03
2022-10-06T04:39:23.364Z,71.04
2022-10-06T04:41:50.387Z,71.14
2022-10-06T04:44:27.428Z,71.10
2022-10-06T04:46:56.556Z,71.23
2022-10-06T04:49:23.879Z,70.98
2022-10-06T04:51:53.791Z,70.96
2022-10-06T04:54:21.609Z,70.98
2022-10-06T04:57:17.357Z,71.17
2022-10-06T05:00:28.485Z,71.08
2022-10-06T05:02:57.856Z,71.21
2022-10-06T05:14:18.149Z,71.25
2022-10-06T05:16:48.001Z,71.26
2022-10-06T05:19:22.692Z,70.76
2022-10-06T05:21:54.675Z,71.03
2022-10-06T05:24:26.205Z,71.30
2022-10-06T05:26:55.515Z,71.62
2022-10-06T05:29:25.847Z,71.65
2022-10-06T05:31:57.219Z,71.60
2022-10-06T05:34:25.655Z,71.35
2022-10-06T05:36:54.438Z,71.72
2022-10-06T05:39:21.518Z,71.34
2022-10-06T05:43:15.370Z,71.63
2022-10-06T06:00:24.386Z,71.96
2022-10-06T06:02:55.492Z,72.17
2022-10-06T06:11:39.056Z,71.78
2022-10-06T06:14:12.471Z,71.46
2022-10-06T06:16:41.151Z,71.42
2022-10-06T06:19:09.367Z,71.17
2022-10-06T06:21:38.694Z,71.73
2022-10-06T06:24:06.770Z,71.45
2022-10-06T06:26:36.934Z,71.66
2022-10-06T06:29:06.928Z,71.35
2022-10-06T06:31:39.986Z,71.90
2022-10-06T06:34:09.103Z,71.72
2022-10-06T06:36:46.477Z,72.18
2022-10-06T06:39:33.221Z,71.72
2022-10-06T06:42:05.351Z,71.99
2022-10-06T06:45:04.555Z,71.74
2022-10-06T07:15:48.265Z,72.24
2022-10-06T07:18:35.517Z,72.42
2022-10-06T10:54:52.204Z,63.08
2022-10-06T10:57:42.649Z,63.27
2022-10-06T11:00:25.571Z,61.10
2022-10-06T11:02:55.388Z,62.36
2022-10-06T11:05:33.553Z,62.29
2022-10-06T11:08:13.421Z,60.82
2022-10-06T11:11:04.214Z,59.58
2022-10-06T11:13:55.864Z,60.34
2022-10-06T11:16:43.256Z,59.16
2022-10-06T11:19:37.726Z,60.96
2022-10-06T11:25:36.076Z,60.36
2022-10-06T12:02:37.671Z,58.37
2022-10-06T12:11:05.941Z,60.00
2022-10-06T12:22:32.262Z,59.11
2022-10-06T13:03:53.805Z,59.87
2022-10-06T14:06:34.454Z,61.27
2022-10-06T14:09:21.998Z,61.15
2022-10-06T14:13:26.004Z,61.01
2022-10-06T14:19:43.442Z,61.38
2022-10-06T14:22:45.968Z,61.42
2022-10-06T15:29:05.972Z,63.13
2022-10-06T15:31:37.954Z,62.80
2022-10-06T15:41:17.379Z,63.02
2022-10-06T16:09:26.888Z,63.45
2022-10-06T16:11:54.232Z,63.62
2022-10-06T16:14:21.470Z,63.73
2022-10-06T16:16:48.790Z,63.62
2022-10-06T16:19:16.435Z,63.86
2022-10-06T17:04:27.958Z,65.81
2022-10-06T17:06:56.339Z,65.80
2022-10-06T17:09:24.981Z,65.41
2022-10-06T17:11:53.600Z,65.48
2022-10-06T17:31:20.887Z,66.06
2022-10-06T17:33:48.928Z,65.78
2022-10-06T17:36:22.388Z,65.81
2022-10-06T17:38:50.807Z,67.06
2022-10-06T17:41:21.983Z,66.57
2022-10-06T17:43:49.847Z,66.19
2022-10-06T17:46:20.195Z,66.17
2022-10-06T17:48:51.694Z,65.70
2022-10-06T17:51:20.501Z,65.74
2022-10-06T18:06:55.258Z,65.88
2022-10-06T18:09:22.683Z,66.07
2022-10-06T18:11:55.682Z,66.17
2022-10-06T18:14:26.969Z,65.91
2022-10-06T18:16:57.016Z,65.86
2022-10-06T18:19:30.125Z,65.76
2022-10-06T18:22:10.484Z,65.87
2022-10-06T18:24:38.267Z,66.06
2022-10-06T18:27:06.634Z,65.91
2022-10-06T18:29:40.222Z,65.90
2022-10-06T19:04:58.141Z,66.48
2022-10-06T19:28:58.495Z,66.62
2022-10-06T19:31:35.167Z,66.62
2022-10-06T19:36:49.602Z,66.62
2022-10-06T19:39:20.039Z,66.88
2022-10-06T19:42:06.866Z,67.26
2022-10-06T19:44:37.272Z,67.42
2022-10-06T19:47:07.331Z,67.22
2022-10-06T19:49:35.233Z,67.13
2022-10-06T19:52:04.590Z,66.86
2022-10-06T19:59:54.055Z,67.78
2022-10-06T20:02:20.971Z,67.34
2022-10-06T20:04:48.252Z,67.35
2022-10-06T20:07:15.152Z,67.58
2022-10-06T20:09:42.332Z,67.59
2022-10-06T20:12:09.232Z,67.37
2022-10-06T20:14:36.612Z,67.60
2022-10-06T20:17:04.747Z,67.94
2022-10-06T20:19:31.975Z,67.74
2022-10-06T20:21:59.095Z,67.58
2022-10-06T20:24:26.126Z,67.74
2022-10-06T20:26:53.454Z,67.97
2022-10-06T20:29:23.359Z,68.02
2022-10-06T20:31:53.034Z,67.90
2022-10-06T20:34:21.692Z,67.84
2022-10-06T20:36:53.194Z,68.08
2022-10-06T20:39:42.979Z,68.07
2022-10-06T20:42:14.879Z,67.97
2022-10-06T20:44:43.402Z,68.08
2022-10-06T20:47:15.181Z,67.92
2022-10-06T20:49:45.346Z,67.95
2022-10-06T20:52:21.148Z,67.96
2022-10-06T20:54:49.073Z,67.93
2022-10-06T20:57:21.919Z,68.01
2022-10-06T20:59:50.917Z,67.93
2022-10-06T21:02:23.861Z,67.82
2022-10-06T21:04:51.195Z,68.25
2022-10-06T21:07:18.859Z,68.06
2022-10-06T21:09:51.927Z,68.09
2022-10-06T21:12:20.632Z,68.08
2022-10-06T21:14:48.141Z,67.86
2022-10-06T21:17:15.226Z,67.81
2022-10-06T21:19:42.385Z,67.98
2022-10-06T21:24:50.432Z,67.95
2022-10-06T21:27:19.261Z,68.09
2022-10-06T21:29:46.625Z,68.04
2022-10-06T21:32:15.455Z,68.13
2022-10-06T21:34:42.696Z,67.99
2022-10-06T21:37:10.502Z,68.26
2022-10-06T21:39:37.907Z,68.17
2022-10-06T21:42:05.107Z,68.02
2022-10-06T21:44:32.421Z,68.17
2022-10-06T21:47:02.876Z,68.49
2022-10-06T21:49:30.193Z,68.45
2022-10-06T21:51:58.892Z,68.25
2022-10-06T21:54:26.041Z,68.05
2022-10-06T21:56:53.198Z,68.29
2022-10-06T21:59:20.393Z,68.48
2022-10-06T22:01:47.977Z,68.93
2022-10-06T22:04:15.278Z,68.51
2022-10-06T22:06:43.066Z,68.66
2022-10-06T22:09:14.724Z,68.28
2022-10-06T22:14:42.750Z,68.91
2022-10-06T22:17:26.836Z,68.87
2022-10-06T22:20:13.048Z,68.80
2022-10-06T22:22:44.191Z,69.12
2022-10-06T22:28:27.516Z,69.06
2022-10-06T22:31:06.203Z,69.08
2022-10-06T22:33:42.950Z,69.07
2022-10-06T22:36:15.184Z,69.34
2022-10-06T22:38:45.426Z,69.04
2022-10-06T22:44:51.106Z,69.12
2022-10-06T22:47:32.937Z,69.17
2022-10-06T22:59:42.549Z,69.58
2022-10-06T23:02:39.503Z,69.79
2022-10-06T23:08:48.475Z,69.68
2022-10-06T23:14:18.527Z,69.92
2022-10-06T23:16:45.955Z,69.73
2022-10-06T23:19:13.655Z,69.61
2022-10-06T23:21:41.070Z,69.87
2022-10-06T23:24:08.984Z,69.97
2022-10-06T23:26:36.276Z,69.53
2022-10-06T23:29:04.757Z,70.00
2022-10-06T23:31:32.867Z,69.48
2022-10-06T23:34:00.226Z,69.71
2022-10-06T23:36:27.723Z,69.51
2022-10-06T23:38:55.190Z,69.88
2022-10-06T23:41:23.856Z,69.50
2022-10-06T23:43:51.121Z,69.77
2022-10-06T23:46:19.338Z,69.67
2022-10-06T23:48:46.585Z,69.69
2022-10-06T23:51:16.957Z,69.77
2022-10-06T23:53:44.375Z,69.88
2022-10-06T23:56:11.604Z,69.77
2022-10-06T23:58:38.809Z,69.21
